sensor_id;sensor_type;location;lat;lon;timestamp;pressure;altitude;pressure_sealevel;temperature;humidity
59337;BME280;45115;52.002;4.686;2023-03-03T00:01:27;102668.25;;;1.99;91.35
59337;BME280;45115;52.002;4.686;2023-03-03T00:03:55;102663.97;;;1.92;92.57
59337;BME280;45115;52.002;4.686;2023-03-03T00:06:22;102659.69;;;1.84;92.50
59337;BME280;45115;52.002;4.686;2023-03-03T00:08:49;102662.41;;;1.84;92.66
59337;BME280;45115;52.002;4.686;2023-03-03T00:11:17;102662.69;;;1.75;93.11
59337;BME280;45115;52.002;4.686;2023-03-03T00:13:46;102666.56;;;1.65;92.96
59337;BME280;45115;52.002;4.686;2023-03-03T00:16:16;102664.63;;;1.70;93.92
59337;BME280;45115;52.002;4.686;2023-03-03T00:18:46;102671.66;;;1.75;93.27
59337;BME280;45115;52.002;4.686;2023-03-03T00:21:25;102661.69;;;1.77;93.47
59337;BME280;45115;52.002;4.686;2023-03-03T00:23:54;102668.75;;;1.83;93.15
59337;BME280;45115;52.002;4.686;2023-03-03T00:26:27;102674.31;;;1.77;93.60
59337;BME280;45115;52.002;4.686;2023-03-03T00:28:57;102667.56;;;1.62;93.68
59337;BME280;45115;52.002;4.686;2023-03-03T00:31:28;102681.13;;;1.61;94.55
59337;BME280;45115;52.002;4.686;2023-03-03T00:34:01;102672.56;;;1.76;94.24
59337;BME280;45115;52.002;4.686;2023-03-03T00:36:35;102670.50;;;1.85;93.61
59337;BME280;45115;52.002;4.686;2023-03-03T00:39:17;102671.28;;;1.89;94.18
59337;BME280;45115;52.002;4.686;2023-03-03T00:41:44;102677.53;;;1.89;94.45
59337;BME280;45115;52.002;4.686;2023-03-03T00:44:37;102671.72;;;1.74;94.40
59337;BME280;45115;52.002;4.686;2023-03-03T00:47:24;102669.56;;;1.54;94.50
59337;BME280;45115;52.002;4.686;2023-03-03T00:49:51;102673.44;;;1.76;94.85
59337;BME280;45115;52.002;4.686;2023-03-03T00:52:19;102672.66;;;1.73;94.80
59337;BME280;45115;52.002;4.686;2023-03-03T00:54:46;102682.50;;;1.74;94.91
59337;BME280;45115;52.002;4.686;2023-03-03T00:57:13;102684.31;;;1.75;95.06
59337;BME280;45115;52.002;4.686;2023-03-03T00:59:42;102675.03;;;1.83;95.26
59337;BME280;45115;52.002;4.686;2023-03-03T01:02:10;102666.53;;;1.97;94.89
59337;BME280;45115;52.002;4.686;2023-03-03T01:04:37;102668.28;;;1.98;94.99
59337;BME280;45115;52.002;4.686;2023-03-03T01:07:05;102677.19;;;2.01;95.17
59337;BME280;45115;52.002;4.686;2023-03-03T01:09:31;102669.00;;;2.04;95.27
59337;BME280;45115;52.002;4.686;2023-03-03T01:11:59;102668.16;;;2.02;94.79
59337;BME280;45115;52.002;4.686;2023-03-03T01:14:25;102668.78;;;2.10;95.45
59337;BME280;45115;52.002;4.686;2023-03-03T01:16:54;102671.16;;;2.21;95.45
59337;BME280;45115;52.002;4.686;2023-03-03T01:19:20;102667.56;;;2.20;95.47
59337;BME280;45115;52.002;4.686;2023-03-03T01:21:47;102674.66;;;2.24;95.32
59337;BME280;45115;52.002;4.686;2023-03-03T01:24:14;102670.84;;;2.32;95.23
59337;BME280;45115;52.002;4.686;2023-03-03T01:26:42;102670.88;;;2.30;95.07
59337;BME280;45115;52.002;4.686;2023-03-03T01:29:08;102665.53;;;2.28;95.29
59337;BME280;45115;52.002;4.686;2023-03-03T01:31:35;102668.47;;;2.21;95.69
59337;BME280;45115;52.002;4.686;2023-03-03T01:34:03;102661.44;;;2.15;95.44
59337;BME280;45115;52.002;4.686;2023-03-03T01:36:31;102672.41;;;2.11;94.96
59337;BME280;45115;52.002;4.686;2023-03-03T01:38:58;102669.22;;;1.97;94.66
59337;BME280;45115;52.002;4.686;2023-03-03T01:41:26;102668.53;;;1.90;95.29
59337;BME280;45115;52.002;4.686;2023-03-03T01:43:54;102670.50;;;1.85;95.15
59337;BME280;45115;52.002;4.686;2023-03-03T01:46:32;102677.00;;;1.78;95.73
59337;BME280;45115;52.002;4.686;2023-03-03T01:49:04;102676.09;;;1.78;95.93
59337;BME280;45115;52.002;4.686;2023-03-03T01:51:35;102671.59;;;1.78;96.16
59337;BME280;45115;52.002;4.686;2023-03-03T01:54:06;102672.25;;;1.86;95.99
59337;BME280;45115;52.002;4.686;2023-03-03T01:56:37;102672.78;;;1.99;95.77
59337;BME280;45115;52.002;4.686;2023-03-03T01:59:06;102671.97;;;1.95;95.68
59337;BME280;45115;52.002;4.686;2023-03-03T02:01:35;102666.69;;;1.91;95.06
59337;BME280;45115;52.002;4.686;2023-03-03T02:04:03;102681.88;;;1.95;95.74
59337;BME280;45115;52.002;4.686;2023-03-03T02:06:32;102673.69;;;1.98;95.90
59337;BME280;45115;52.002;4.686;2023-03-03T02:09:05;102674.00;;;1.87;95.96
59337;BME280;45115;52.002;4.686;2023-03-03T02:11:36;102674.06;;;1.86;96.20
59337;BME280;45115;52.002;4.686;2023-03-03T02:14:03;102670.28;;;1.91;95.94
59337;BME280;45115;52.002;4.686;2023-03-03T02:16:30;102668.25;;;1.99;95.66
59337;BME280;45115;52.002;4.686;2023-03-03T02:18:58;102674.53;;;2.00;96.20
59337;BME280;45115;52.002;4.686;2023-03-03T02:21:27;102674.47;;;2.03;95.58
59337;BME280;45115;52.002;4.686;2023-03-03T02:24:00;102675.78;;;1.88;95.43
59337;BME280;45115;52.002;4.686;2023-03-03T02:26:35;102673.03;;;1.90;95.67
59337;BME280;45115;52.002;4.686;2023-03-03T02:29:06;102676.84;;;1.83;95.95
59337;BME280;45115;52.002;4.686;2023-03-03T02:31:34;102674.53;;;2.00;96.11
59337;BME280;45115;52.002;4.686;2023-03-03T02:34:02;102680.81;;;2.00;96.18
59337;BME280;45115;52.002;4.686;2023-03-03T02:36:30;102666.88;;;2.14;95.89
59337;BME280;45115;52.002;4.686;2023-03-03T02:39:02;102668.00;;;2.07;96.25
59337;BME280;45115;52.002;4.686;2023-03-03T02:41:34;102668.25;;;2.28;95.99
59337;BME280;45115;52.002;4.686;2023-03-03T02:44:04;102667.34;;;2.28;95.85
59337;BME280;45115;52.002;4.686;2023-03-03T02:46:33;102668.78;;;2.40;96.07
59337;BME280;45115;52.002;4.686;2023-03-03T02:49:01;102668.97;;;2.61;95.89
59337;BME280;45115;52.002;4.686;2023-03-03T02:51:28;102667.34;;;2.56;94.68
59337;BME280;45115;52.002;4.686;2023-03-03T02:53:55;102658.41;;;2.54;95.92
59337;BME280;45115;52.002;4.686;2023-03-03T02:56:23;102669.13;;;2.57;94.89
59337;BME280;45115;52.002;4.686;2023-03-03T02:58:51;102663.50;;;2.63;94.61
59337;BME280;45115;52.002;4.686;2023-03-03T03:01:19;102661.50;;;2.69;94.89
59337;BME280;45115;52.002;4.686;2023-03-03T03:03:45;102665.19;;;2.67;94.46
59337;BME280;45115;52.002;4.686;2023-03-03T03:06:16;102657.13;;;2.65;94.63
59337;BME280;45115;52.002;4.686;2023-03-03T03:08:43;102667.25;;;2.59;95.11
59337;BME280;45115;52.002;4.686;2023-03-03T03:11:09;102666.53;;;2.54;94.04
59337;BME280;45115;52.002;4.686;2023-03-03T03:13:37;102671.22;;;2.47;94.20
59337;BME280;45115;52.002;4.686;2023-03-03T03:16:06;102663.56;;;2.34;93.27
59337;BME280;45115;52.002;4.686;2023-03-03T03:18:33;102680.91;;;2.26;93.47
59337;BME280;45115;52.002;4.686;2023-03-03T03:21:08;102674.09;;;2.13;94.33
59337;BME280;45115;52.002;4.686;2023-03-03T03:23:36;102676.81;;;2.13;94.35
59337;BME280;45115;52.002;4.686;2023-03-03T03:26:04;102678.03;;;2.03;94.64
59337;BME280;45115;52.002;4.686;2023-03-03T03:28:32;102684.16;;;2.08;94.84
59337;BME280;45115;52.002;4.686;2023-03-03T03:30:59;102684.41;;;2.01;94.89
59337;BME280;45115;52.002;4.686;2023-03-03T03:33:28;102687.97;;;2.01;94.88
59337;BME280;45115;52.002;4.686;2023-03-03T03:35:56;102686.22;;;2.00;95.56
59337;BME280;45115;52.002;4.686;2023-03-03T03:38:24;102692.66;;;1.96;95.67
59337;BME280;45115;52.002;4.686;2023-03-03T03:40:52;102686.28;;;1.99;95.57
59337;BME280;45115;52.002;4.686;2023-03-03T03:43:19;102691.72;;;1.97;96.19
59337;BME280;45115;52.002;4.686;2023-03-03T03:45:46;102694.81;;;1.85;96.31
59337;BME280;45115;52.002;4.686;2023-03-03T03:48:14;102695.63;;;1.87;96.56
59337;BME280;45115;52.002;4.686;2023-03-03T03:50:44;102685.91;;;1.82;96.64
59337;BME280;45115;52.002;4.686;2023-03-03T03:53:12;102673.25;;;1.82;96.84
59337;BME280;45115;52.002;4.686;2023-03-03T03:55:38;102686.84;;;1.79;97.00
59337;BME280;45115;52.002;4.686;2023-03-03T03:58:05;102682.34;;;1.80;96.89
59337;BME280;45115;52.002;4.686;2023-03-03T04:00:32;102685.84;;;1.83;97.25
59337;BME280;45115;52.002;4.686;2023-03-03T04:03:00;102692.75;;;1.93;96.65
59337;BME280;45115;52.002;4.686;2023-03-03T04:05:27;102692.00;;;1.88;96.60
59337;BME280;45115;52.002;4.686;2023-03-03T04:07:55;102696.41;;;1.92;96.50
59337;BME280;45115;52.002;4.686;2023-03-03T04:10:22;102693.00;;;1.84;96.52
59337;BME280;45115;52.002;4.686;2023-03-03T04:12:49;102690.16;;;1.90;96.65
59337;BME280;45115;52.002;4.686;2023-03-03T04:15:16;102708.84;;;1.96;96.70
59337;BME280;45115;52.002;4.686;2023-03-03T04:17:43;102698.25;;;1.90;97.03
59337;BME280;45115;52.002;4.686;2023-03-03T04:20:12;102705.31;;;1.94;96.23
59337;BME280;45115;52.002;4.686;2023-03-03T04:22:40;102708.84;;;1.96;97.05
59337;BME280;45115;52.002;4.686;2023-03-03T04:25:11;102709.66;;;2.00;96.87
59337;BME280;45115;52.002;4.686;2023-03-03T04:27:41;102705.19;;;1.99;96.94
59337;BME280;45115;52.002;4.686;2023-03-03T04:30:13;102709.59;;;2.01;97.09
59337;BME280;45115;52.002;4.686;2023-03-03T04:32:41;102706.94;;;2.00;96.62
59337;BME280;45115;52.002;4.686;2023-03-03T04:35:10;102708.50;;;2.08;96.71
59337;BME280;45115;52.002;4.686;2023-03-03T04:37:40;102714.00;;;2.05;96.77
59337;BME280;45115;52.002;4.686;2023-03-03T04:40:09;102710.34;;;2.06;96.66
59337;BME280;45115;52.002;4.686;2023-03-03T04:42:37;102714.63;;;2.15;96.85
59337;BME280;45115;52.002;4.686;2023-03-03T04:45:06;102701.38;;;2.06;97.29
59337;BME280;45115;52.002;4.686;2023-03-03T04:47:34;102709.34;;;2.10;96.77
59337;BME280;45115;52.002;4.686;2023-03-03T04:50:00;102705.56;;;2.16;97.25
59337;BME280;45115;52.002;4.686;2023-03-03T04:52:30;102708.28;;;2.16;96.98
59337;BME280;45115;52.002;4.686;2023-03-03T04:54:57;102711.94;;;2.13;96.94
59337;BME280;45115;52.002;4.686;2023-03-03T04:57:26;102721.78;;;2.16;97.03
59337;BME280;45115;52.002;4.686;2023-03-03T04:59:53;102715.31;;;2.21;97.07
59337;BME280;45115;52.002;4.686;2023-03-03T05:02:21;102714.63;;;2.15;96.86
59337;BME280;45115;52.002;4.686;2023-03-03T05:04:47;102709.00;;;2.21;97.55
59337;BME280;45115;52.002;4.686;2023-03-03T05:07:14;102717.00;;;2.25;97.45
59337;BME280;45115;52.002;4.686;2023-03-03T05:09:42;102720.34;;;2.34;97.10
59337;BME280;45115;52.002;4.686;2023-03-03T05:12:08;102714.88;;;2.35;97.28
59337;BME280;45115;52.002;4.686;2023-03-03T05:14:36;102710.50;;;2.31;96.96
59337;BME280;45115;52.002;4.686;2023-03-03T05:17:03;102716.56;;;2.39;97.01
59337;BME280;45115;52.002;4.686;2023-03-03T05:19:30;102717.41;;;2.41;97.19
59337;BME280;45115;52.002;4.686;2023-03-03T05:21:59;102719.16;;;2.42;96.66
59337;BME280;45115;52.002;4.686;2023-03-03T05:24:26;102720.16;;;2.40;96.59
59337;BME280;45115;52.002;4.686;2023-03-03T05:26:53;102718.28;;;2.42;96.80
59337;BME280;45115;52.002;4.686;2023-03-03T05:29:19;102713.81;;;2.41;97.08
59337;BME280;45115;52.002;4.686;2023-03-03T05:31:48;102720.97;;;2.42;96.41
59337;BME280;45115;52.002;4.686;2023-03-03T05:34:14;102718.28;;;2.42;97.28
59337;BME280;45115;52.002;4.686;2023-03-03T05:36:41;102715.56;;;2.42;96.79
59337;BME280;45115;52.002;4.686;2023-03-03T05:39:08;102721.09;;;2.39;97.00
59337;BME280;45115;52.002;4.686;2023-03-03T05:41:34;102723.00;;;2.35;96.80
59337;BME280;45115;52.002;4.686;2023-03-03T05:44:01;102720.25;;;2.37;96.86
59337;BME280;45115;52.002;4.686;2023-03-03T05:46:28;102711.22;;;2.38;97.02
59337;BME280;45115;52.002;4.686;2023-03-03T05:48:56;102713.31;;;2.28;97.15
59337;BME280;45115;52.002;4.686;2023-03-03T05:51:23;102721.25;;;2.34;97.22
59337;BME280;45115;52.002;4.686;2023-03-03T05:53:49;102725.06;;;2.27;97.28
59337;BME280;45115;52.002;4.686;2023-03-03T05:56:16;102725.75;;;2.34;97.23
59337;BME280;45115;52.002;4.686;2023-03-03T05:58:43;102718.72;;;2.28;97.03
59337;BME280;45115;52.002;4.686;2023-03-03T06:01:10;102724.81;;;2.35;97.13
59337;BME280;45115;52.002;4.686;2023-03-03T06:03:37;102725.75;;;2.34;97.73
59337;BME280;45115;52.002;4.686;2023-03-03T06:06:05;102721.19;;;2.36;98.00
59337;BME280;45115;52.002;4.686;2023-03-03T06:08:33;102722.81;;;2.41;97.00
59337;BME280;45115;52.002;4.686;2023-03-03T06:11:00;102730.88;;;2.43;97.44
59337;BME280;45115;52.002;4.686;2023-03-03T06:13:28;102722.09;;;2.36;97.39
59337;BME280;45115;52.002;4.686;2023-03-03T06:15:54;102729.19;;;2.39;97.84
59337;BME280;45115;52.002;4.686;2023-03-03T06:18:21;102733.69;;;2.40;97.33
59337;BME280;45115;52.002;4.686;2023-03-03T06:20:50;102734.75;;;2.34;97.59
59337;BME280;45115;52.002;4.686;2023-03-03T06:23:19;102722.94;;;2.37;97.79
59337;BME280;45115;52.002;4.686;2023-03-03T06:25:46;102735.41;;;2.42;96.80
59337;BME280;45115;52.002;4.686;2023-03-03T06:28:13;102733.75;;;2.37;97.56
59337;BME280;45115;52.002;4.686;2023-03-03T06:30:40;102741.41;;;2.52;97.50
59337;BME280;45115;52.002;4.686;2023-03-03T06:33:06;102740.81;;;2.42;97.47
59337;BME280;45115;52.002;4.686;2023-03-03T06:35:33;102747.06;;;2.44;97.57
59337;BME280;45115;52.002;4.686;2023-03-03T06:37:59;102733.75;;;2.37;97.79
59337;BME280;45115;52.002;4.686;2023-03-03T06:40:27;102751.50;;;2.45;97.80
59337;BME280;45115;52.002;4.686;2023-03-03T06:42:54;102749.59;;;2.49;96.94
59337;BME280;45115;52.002;4.686;2023-03-03T06:45:21;102753.41;;;2.43;96.90
59337;BME280;45115;52.002;4.686;2023-03-03T06:47:47;102746.41;;;2.36;97.77
59337;BME280;45115;52.002;4.686;2023-03-03T06:50:17;102756.97;;;2.44;97.71
59337;BME280;45115;52.002;4.686;2023-03-03T06:52:45;102764.22;;;2.43;97.20
59337;BME280;45115;52.002;4.686;2023-03-03T06:55:17;102759.63;;;2.47;97.53
59337;BME280;45115;52.002;4.686;2023-03-03T06:57:48;102765.44;;;2.61;97.63
59337;BME280;45115;52.002;4.686;2023-03-03T07:00:18;102768.88;;;2.67;97.07
59337;BME280;45115;52.002;4.686;2023-03-03T07:02:46;102771.69;;;2.63;97.39
59337;BME280;45115;52.002;4.686;2023-03-03T07:05:15;102771.69;;;2.63;97.20
59337;BME280;45115;52.002;4.686;2023-03-03T07:07:43;102772.69;;;2.60;97.56
59337;BME280;45115;52.002;4.686;2023-03-03T07:10:19;102779.75;;;2.66;97.27
59337;BME280;45115;52.002;4.686;2023-03-03T07:12:49;102785.94;;;2.69;97.51
59337;BME280;45115;52.002;4.686;2023-03-03T07:15:16;102783.31;;;2.66;97.25
59337;BME280;45115;52.002;4.686;2023-03-03T07:17:47;102791.16;;;2.75;97.22
59337;BME280;45115;52.002;4.686;2023-03-03T07:20:18;102781.28;;;2.74;96.79
59337;BME280;45115;52.002;4.686;2023-03-03T07:22:46;102786.63;;;2.76;97.08
59337;BME280;45115;52.002;4.686;2023-03-03T07:25:20;102790.41;;;2.70;96.90
59337;BME280;45115;52.002;4.686;2023-03-03T07:27:46;102796.63;;;2.74;96.85
59337;BME280;45115;52.002;4.686;2023-03-03T07:30:23;102796.34;;;2.83;97.27
59337;BME280;45115;52.002;4.686;2023-03-03T07:32:52;102791.56;;;2.91;97.29
59337;BME280;45115;52.002;4.686;2023-03-03T07:35:37;102794.63;;;3.06;96.46
59337;BME280;45115;52.002;4.686;2023-03-03T07:38:16;102798.19;;;3.08;95.42
59337;BME280;45115;52.002;4.686;2023-03-03T07:40:49;102789.09;;;3.11;95.48
59337;BME280;45115;52.002;4.686;2023-03-03T07:43:37;102796.31;;;3.10;95.70
59337;BME280;45115;52.002;4.686;2023-03-03T07:46:35;102799.19;;;3.06;95.41
59337;BME280;45115;52.002;4.686;2023-03-03T07:49:15;102814.72;;;2.99;96.20
59337;BME280;45115;52.002;4.686;2023-03-03T07:51:46;102803.66;;;3.07;96.32
59337;BME280;45115;52.002;4.686;2023-03-03T07:54:20;102808.09;;;3.09;95.92
59337;BME280;45115;52.002;4.686;2023-03-03T07:56:54;102807.94;;;3.14;95.95
59337;BME280;45115;52.002;4.686;2023-03-03T07:59:24;102808.91;;;3.11;95.72
59337;BME280;45115;52.002;4.686;2023-03-03T08:01:53;102810.47;;;3.20;95.27
59337;BME280;45115;52.002;4.686;2023-03-03T08:04:27;102810.09;;;3.30;95.09
59337;BME280;45115;52.002;4.686;2023-03-03T08:06:55;102823.84;;;3.24;95.48
59337;BME280;45115;52.002;4.686;2023-03-03T08:09:37;102824.63;;;3.28;94.99
59337;BME280;45115;52.002;4.686;2023-03-03T08:12:30;102828.22;;;3.28;94.33
59337;BME280;45115;52.002;4.686;2023-03-03T08:15:14;102835.63;;;3.23;94.56
59337;BME280;45115;52.002;4.686;2023-03-03T08:17:43;102839.19;;;3.24;94.90
59337;BME280;45115;52.002;4.686;2023-03-03T08:20:40;102844.31;;;3.33;95.07
59337;BME280;45115;52.002;4.686;2023-03-03T08:23:07;102844.91;;;3.42;94.16
59337;BME280;45115;52.002;4.686;2023-03-03T08:25:34;102842.56;;;3.58;94.75
59337;BME280;45115;52.002;4.686;2023-03-03T08:28:03;102847.69;;;3.67;93.94
59337;BME280;45115;52.002;4.686;2023-03-03T08:30:29;102849.19;;;3.76;93.16
59337;BME280;45115;52.002;4.686;2023-03-03T08:32:58;102852.88;;;3.73;92.93
59337;BME280;45115;52.002;4.686;2023-03-03T08:35:25;102854.78;;;3.70;92.04
59337;BME280;45115;52.002;4.686;2023-03-03T08:37:52;102851.97;;;3.73;91.66
59337;BME280;45115;52.002;4.686;2023-03-03T08:40:19;102860.81;;;3.79;91.73
59337;BME280;45115;52.002;4.686;2023-03-03T08:42:45;102847.91;;;3.86;91.54
59337;BME280;45115;52.002;4.686;2023-03-03T08:45:13;102849.75;;;4.10;92.12
59337;BME280;45115;52.002;4.686;2023-03-03T08:47:40;102853.81;;;3.98;91.11
59337;BME280;45115;52.002;4.686;2023-03-03T08:50:09;102863.91;;;3.93;90.63
59337;BME280;45115;52.002;4.686;2023-03-03T08:52:36;102861.28;;;3.90;90.77
59337;BME280;45115;52.002;4.686;2023-03-03T08:55:03;102866.25;;;4.04;90.27
59337;BME280;45115;52.002;4.686;2023-03-03T08:57:30;102868.69;;;4.11;90.52
59337;BME280;45115;52.002;4.686;2023-03-03T08:59:56;102865.75;;;4.17;88.87
59337;BME280;45115;52.002;4.686;2023-03-03T09:02:23;102873.31;;;4.08;89.53
59337;BME280;45115;52.002;4.686;2023-03-03T09:04:50;102864.66;;;4.23;89.50
59337;BME280;45115;52.002;4.686;2023-03-03T09:07:18;102869.72;;;4.57;87.38
59337;BME280;45115;52.002;4.686;2023-03-03T09:09:44;102877.84;;;4.33;88.46
59337;BME280;45115;52.002;4.686;2023-03-03T09:12:15;102867.97;;;4.31;89.06
59337;BME280;45115;52.002;4.686;2023-03-03T09:14:42;102868.19;;;4.49;88.61
59337;BME280;45115;52.002;4.686;2023-03-03T09:17:21;102864.19;;;4.60;87.78
59337;BME280;45115;52.002;4.686;2023-03-03T09:19:49;102862.13;;;4.66;86.67
59337;BME280;45115;52.002;4.686;2023-03-03T09:22:20;102863.94;;;4.66;86.33
59337;BME280;45115;52.002;4.686;2023-03-03T09:24:49;102858.03;;;4.78;86.42
59337;BME280;45115;52.002;4.686;2023-03-03T09:27:18;102860.47;;;4.85;85.32
59337;BME280;45115;52.002;4.686;2023-03-03T09:29:48;102863.94;;;5.12;86.09
59337;BME280;45115;52.002;4.686;2023-03-03T09:32:25;102856.06;;;5.04;85.15
59337;BME280;45115;52.002;4.686;2023-03-03T09:34:55;102864.19;;;5.27;84.18
59337;BME280;45115;52.002;4.686;2023-03-03T09:37:26;102860.28;;;5.34;83.90
59337;BME280;45115;52.002;4.686;2023-03-03T09:39:55;102860.84;;;5.64;82.70
59337;BME280;45115;52.002;4.686;2023-03-03T09:42:45;102852.84;;;6.03;81.77
59337;BME280;45115;52.002;4.686;2023-03-03T09:45:27;102860.53;;;5.72;81.85
59337;BME280;45115;52.002;4.686;2023-03-03T09:48:08;102858.06;;;5.65;82.20
59337;BME280;45115;52.002;4.686;2023-03-03T09:50:45;102865.69;;;5.78;81.71
59337;BME280;45115;52.002;4.686;2023-03-03T09:53:23;102860.09;;;5.60;82.19
59337;BME280;45115;52.002;4.686;2023-03-03T09:56:00;102853.06;;;5.98;82.12
59337;BME280;45115;52.002;4.686;2023-03-03T09:58:37;102851.56;;;6.31;79.75
59337;BME280;45115;52.002;4.686;2023-03-03T10:01:32;102861.41;;;6.34;79.00
59337;BME280;45115;52.002;4.686;2023-03-03T10:04:18;102847.16;;;6.67;78.42
59337;BME280;45115;52.002;4.686;2023-03-03T10:06:57;102859.94;;;6.65;77.59
59337;BME280;45115;52.002;4.686;2023-03-03T10:09:38;102860.78;;;6.86;77.13
59337;BME280;45115;52.002;4.686;2023-03-03T10:12:14;102858.31;;;7.19;76.24
59337;BME280;45115;52.002;4.686;2023-03-03T10:14:55;102851.13;;;7.35;75.17
59337;BME280;45115;52.002;4.686;2023-03-03T10:17:34;102857.16;;;7.23;74.93
59337;BME280;45115;52.002;4.686;2023-03-03T10:20:21;102853.63;;;7.39;74.64
59337;BME280;45115;52.002;4.686;2023-03-03T10:22:53;102854.69;;;7.18;73.83
59337;BME280;45115;52.002;4.686;2023-03-03T10:25:28;102857.09;;;7.06;75.66
59337;BME280;45115;52.002;4.686;2023-03-03T10:28:24;102853.63;;;7.39;73.40
59337;BME280;45115;52.002;4.686;2023-03-03T10:31:02;102848.41;;;7.87;70.62
59337;BME280;45115;52.002;4.686;2023-03-03T10:33:38;102852.38;;;8.16;70.42
59337;BME280;45115;52.002;4.686;2023-03-03T10:36:21;102853.44;;;8.31;68.99
59337;BME280;45115;52.002;4.686;2023-03-03T10:39:00;102853.41;;;8.14;68.16
59337;BME280;45115;52.002;4.686;2023-03-03T10:41:42;102858.84;;;8.14;69.23
59337;BME280;45115;52.002;4.686;2023-03-03T10:44:34;102860.88;;;8.10;67.88
59337;BME280;45115;52.002;4.686;2023-03-03T10:47:22;102863.69;;;8.09;69.57
59337;BME280;45115;52.002;4.686;2023-03-03T10:50:02;102854.28;;;7.80;70.03
59337;BME280;45115;52.002;4.686;2023-03-03T10:52:35;102860.19;;;7.54;71.77
59337;BME280;45115;52.002;4.686;2023-03-03T10:55:28;102857.78;;;7.65;73.28
59337;BME280;45115;52.002;4.686;2023-03-03T10:58:17;102852.69;;;7.93;71.23
59337;BME280;45115;52.002;4.686;2023-03-03T11:00:50;102857.06;;;7.78;70.78
59337;BME280;45115;52.002;4.686;2023-03-03T11:03:33;102856.00;;;8.17;69.67
59337;BME280;45115;52.002;4.686;2023-03-03T11:06:10;102854.53;;;8.10;68.87
59337;BME280;45115;52.002;4.686;2023-03-03T11:08:42;102853.28;;;7.64;69.37
59337;BME280;45115;52.002;4.686;2023-03-03T11:11:16;102844.88;;;7.68;70.27
59337;BME280;45115;52.002;4.686;2023-03-03T11:13:49;102855.78;;;7.85;69.93
59337;BME280;45115;52.002;4.686;2023-03-03T11:16:31;102855.66;;;7.71;70.78
59337;BME280;45115;52.002;4.686;2023-03-03T11:19:06;102852.97;;;7.70;69.96
59337;BME280;45115;52.002;4.686;2023-03-03T11:21:40;102861.44;;;7.47;70.74
59337;BME280;45115;52.002;4.686;2023-03-03T11:24:22;102852.94;;;7.53;70.00
59337;BME280;45115;52.002;4.686;2023-03-03T11:27:05;102856.50;;;7.72;71.00
59337;BME280;45115;52.002;4.686;2023-03-03T11:30:02;102848.19;;;8.09;68.67
59337;BME280;45115;52.002;4.686;2023-03-03T11:32:40;102843.75;;;8.58;67.08
59337;BME280;45115;52.002;4.686;2023-03-03T11:35:24;102846.63;;;8.39;65.12
59337;BME280;45115;52.002;4.686;2023-03-03T11:38:02;102844.44;;;8.29;66.60
59337;BME280;45115;52.002;4.686;2023-03-03T11:40:43;102851.22;;;8.54;64.74
59337;BME280;45115;52.002;4.686;2023-03-03T11:43:16;102842.81;;;8.59;65.48
59337;BME280;45115;52.002;4.686;2023-03-03T11:45:48;102841.81;;;8.92;64.11
59337;BME280;45115;52.002;4.686;2023-03-03T11:48:19;102844.22;;;9.14;64.18
59337;BME280;45115;52.002;4.686;2023-03-03T11:50:54;102845.56;;;8.74;63.52
59337;BME280;45115;52.002;4.686;2023-03-03T11:53:31;102825.63;;;8.57;64.22
59337;BME280;45115;52.002;4.686;2023-03-03T11:56:13;102828.75;;;8.97;63.69
59337;BME280;45115;52.002;4.686;2023-03-03T11:58:46;102824.28;;;9.12;61.70
59337;BME280;45115;52.002;4.686;2023-03-03T12:01:21;102822.25;;;9.16;61.90
59337;BME280;45115;52.002;4.686;2023-03-03T12:03:53;102826.78;;;9.32;61.87
59337;BME280;45115;52.002;4.686;2023-03-03T12:06:27;102823.25;;;9.15;59.79
59337;BME280;45115;52.002;4.686;2023-03-03T12:09:20;102816.97;;;9.44;59.47
59337;BME280;45115;52.002;4.686;2023-03-03T12:11:52;102821.13;;;9.20;58.04
59337;BME280;45115;52.002;4.686;2023-03-03T12:14:34;102812.97;;;9.49;57.97
59337;BME280;45115;52.002;4.686;2023-03-03T12:17:17;102817.72;;;9.61;57.71
59337;BME280;45115;52.002;4.686;2023-03-03T12:19:51;102821.78;;;9.54;53.76
59337;BME280;45115;52.002;4.686;2023-03-03T12:22:28;102803.91;;;9.78;52.34
59337;BME280;45115;52.002;4.686;2023-03-03T12:25:22;102800.25;;;9.48;54.46
59337;BME280;45115;52.002;4.686;2023-03-03T12:27:59;102799.84;;;9.25;56.88
59337;BME280;45115;52.002;4.686;2023-03-03T12:30:39;102789.47;;;9.90;54.76
59337;BME280;45115;52.002;4.686;2023-03-03T12:33:20;102785.50;;;10.26;52.92
59337;BME280;45115;52.002;4.686;2023-03-03T12:35:51;102789.84;;;10.58;52.32
59337;BME280;45115;52.002;4.686;2023-03-03T12:38:23;102786.50;;;10.39;52.01
59337;BME280;45115;52.002;4.686;2023-03-03T12:40:58;102778.75;;;10.31;54.34
59337;BME280;45115;52.002;4.686;2023-03-03T12:43:54;102788.38;;;9.79;56.13
59337;BME280;45115;52.002;4.686;2023-03-03T12:46:24;102795.59;;;9.50;57.42
59337;BME280;45115;52.002;4.686;2023-03-03T12:48:55;102800.66;;;9.27;59.46
59337;BME280;45115;52.002;4.686;2023-03-03T12:51:32;102797.47;;;9.03;60.17
59337;BME280;45115;52.002;4.686;2023-03-03T12:54:28;102784.97;;;8.99;59.79
59337;BME280;45115;52.002;4.686;2023-03-03T12:57:06;102798.34;;;8.88;59.54
59337;BME280;45115;52.002;4.686;2023-03-03T12:59:39;102794.44;;;8.76;59.36
59337;BME280;45115;52.002;4.686;2023-03-03T13:02:30;102795.00;;;8.98;59.56
59337;BME280;45115;52.002;4.686;2023-03-03T13:05:05;102798.06;;;8.77;58.03
59337;BME280;45115;52.002;4.686;2023-03-03T13:07:42;102797.53;;;8.70;58.22
59337;BME280;45115;52.002;4.686;2023-03-03T13:10:16;102794.09;;;8.82;58.50
59337;BME280;45115;52.002;4.686;2023-03-03T13:12:47;102792.63;;;9.08;58.85
59337;BME280;45115;52.002;4.686;2023-03-03T13:15:20;102790.16;;;9.19;58.85
59337;BME280;45115;52.002;4.686;2023-03-03T13:17:57;102774.75;;;9.02;58.63
59337;BME280;45115;52.002;4.686;2023-03-03T13:20:36;102773.22;;;8.81;59.19
59337;BME280;45115;52.002;4.686;2023-03-03T13:23:10;102776.03;;;9.42;56.96
59337;BME280;45115;52.002;4.686;2023-03-03T13:25:47;102774.19;;;10.02;52.55